sensor_id;sensor_type;location;lat;lon;timestamp;P1;durP1;ratioP1;P2;durP2;ratioP2
84133;SDS011;74235;48.688;9.708;2024-02-28T00:00:08;1.15;;;1.05;;
84133;SDS011;74235;48.688;9.708;2024-02-28T00:02:38;1.35;;;1.20;;
84133;SDS011;74235;48.688;9.708;2024-02-28T00:07:33;1.23;;;1.02;;
84133;SDS011;74235;48.688;9.708;2024-02-28T00:10:02;1.15;;;1.02;;
84133;SDS011;74235;48.688;9.708;2024-02-28T00:12:29;1.67;;;1.38;;
84133;SDS011;74235;48.688;9.708;2024-02-28T00:17:26;1.23;;;1.00;;
84133;SDS011;74235;48.688;9.708;2024-02-28T00:19:53;1.55;;;1.25;;
84133;SDS011;74235;48.688;9.708;2024-02-28T00:24:49;1.35;;;1.08;;
84133;SDS011;74235;48.688;9.708;2024-02-28T00:27:16;1.38;;;1.20;;
84133;SDS011;74235;48.688;9.708;2024-02-28T00:32:12;1.30;;;1.10;;
84133;SDS011;74235;48.688;9.708;2024-02-28T00:37:08;1.75;;;1.48;;
84133;SDS011;74235;48.688;9.708;2024-02-28T00:42:03;1.30;;;1.20;;
84133;SDS011;74235;48.688;9.708;2024-02-28T00:46:58;1.10;;;1.00;;
84133;SDS011;74235;48.688;9.708;2024-02-28T00:49:26;1.10;;;1.00;;
84133;SDS011;74235;48.688;9.708;2024-02-28T00:54:23;1.20;;;1.10;;
84133;SDS011;74235;48.688;9.708;2024-02-28T00:56:52;1.08;;;0.98;;
84133;SDS011;74235;48.688;9.708;2024-02-28T01:01:48;1.48;;;1.30;;
84133;SDS011;74235;48.688;9.708;2024-02-28T01:04:15;1.52;;;1.15;;
84133;SDS011;74235;48.688;9.708;2024-02-28T01:09:12;1.42;;;1.25;;
84133;SDS011;74235;48.688;9.708;2024-02-28T01:11:39;1.30;;;1.20;;
84133;SDS011;74235;48.688;9.708;2024-02-28T01:14:07;1.27;;;1.05;;
84133;SDS011;74235;48.688;9.708;2024-02-28T01:16:35;1.15;;;0.90;;
84133;SDS011;74235;48.688;9.708;2024-02-28T01:21:30;1.58;;;1.30;;
84133;SDS011;74235;48.688;9.708;2024-02-28T01:26:27;1.48;;;1.13;;
84133;SDS011;74235;48.688;9.708;2024-02-28T01:28:54;1.67;;;1.45;;
84133;SDS011;74235;48.688;9.708;2024-02-28T01:31:22;0.98;;;0.98;;
84133;SDS011;74235;48.688;9.708;2024-02-28T01:33:49;1.52;;;1.30;;
84133;SDS011;74235;48.688;9.708;2024-02-28T01:36:17;1.23;;;1.02;;
84133;SDS011;74235;48.688;9.708;2024-02-28T01:38:45;1.52;;;1.27;;
84133;SDS011;74235;48.688;9.708;2024-02-28T01:41:12;1.25;;;1.15;;
84133;SDS011;74235;48.688;9.708;2024-02-28T01:43:41;1.25;;;1.13;;
84133;SDS011;74235;48.688;9.708;2024-02-28T01:46:15;1.63;;;1.10;;
84133;SDS011;74235;48.688;9.708;2024-02-28T01:48:49;1.60;;;1.33;;
84133;SDS011;74235;48.688;9.708;2024-02-28T01:51:17;1.60;;;1.23;;
84133;SDS011;74235;48.688;9.708;2024-02-28T01:53:45;1.95;;;1.35;;
84133;SDS011;74235;48.688;9.708;2024-02-28T01:56:13;1.63;;;1.20;;
84133;SDS011;74235;48.688;9.708;2024-02-28T01:58:45;0.80;;;0.80;;
84133;SDS011;74235;48.688;9.708;2024-02-28T02:01:14;1.15;;;0.90;;
84133;SDS011;74235;48.688;9.708;2024-02-28T02:03:49;1.40;;;1.30;;
84133;SDS011;74235;48.688;9.708;2024-02-28T02:08:45;2.30;;;1.45;;
84133;SDS011;74235;48.688;9.708;2024-02-28T02:11:13;1.20;;;1.10;;
84133;SDS011;74235;48.688;9.708;2024-02-28T02:13:48;1.10;;;1.05;;
84133;SDS011;74235;48.688;9.708;2024-02-28T02:16:17;1.63;;;1.30;;
84133;SDS011;74235;48.688;9.708;2024-02-28T02:18:46;1.02;;;0.95;;
84133;SDS011;74235;48.688;9.708;2024-02-28T02:21:15;1.27;;;1.05;;
84133;SDS011;74235;48.688;9.708;2024-02-28T02:23:47;1.55;;;1.40;;
84133;SDS011;74235;48.688;9.708;2024-02-28T02:26:14;1.40;;;1.05;;
84133;SDS011;74235;48.688;9.708;2024-02-28T02:31:10;1.13;;;1.05;;
84133;SDS011;74235;48.688;9.708;2024-02-28T02:33:38;1.35;;;1.15;;
84133;SDS011;74235;48.688;9.708;2024-02-28T02:36:06;2.17;;;1.45;;
84133;SDS011;74235;48.688;9.708;2024-02-28T02:38:33;1.10;;;0.90;;
84133;SDS011;74235;48.688;9.708;2024-02-28T02:41:03;2.10;;;1.40;;
84133;SDS011;74235;48.688;9.708;2024-02-28T02:43:30;1.52;;;1.17;;
84133;SDS011;74235;48.688;9.708;2024-02-28T02:48:25;1.30;;;1.15;;
84133;SDS011;74235;48.688;9.708;2024-02-28T02:53:21;1.48;;;1.23;;
84133;SDS011;74235;48.688;9.708;2024-02-28T02:58:17;1.10;;;1.00;;
84133;SDS011;74235;48.688;9.708;2024-02-28T03:00:45;1.17;;;0.98;;
84133;SDS011;74235;48.688;9.708;2024-02-28T03:03:12;1.45;;;1.30;;
84133;SDS011;74235;48.688;9.708;2024-02-28T03:05:40;1.58;;;1.33;;
84133;SDS011;74235;48.688;9.708;2024-02-28T03:08:08;1.25;;;1.15;;
84133;SDS011;74235;48.688;9.708;2024-02-28T03:13:03;1.52;;;1.13;;
84133;SDS011;74235;48.688;9.708;2024-02-28T03:15:34;2.10;;;1.60;;
84133;SDS011;74235;48.688;9.708;2024-02-28T03:18:02;1.02;;;0.95;;
84133;SDS011;74235;48.688;9.708;2024-02-28T03:20:30;1.55;;;1.25;;
84133;SDS011;74235;48.688;9.708;2024-02-28T03:22:57;1.92;;;1.73;;
84133;SDS011;74235;48.688;9.708;2024-02-28T03:25:25;1.23;;;0.98;;
84133;SDS011;74235;48.688;9.708;2024-02-28T03:27:52;1.35;;;1.17;;
84133;SDS011;74235;48.688;9.708;2024-02-28T03:32:49;1.25;;;1.10;;
84133;SDS011;74235;48.688;9.708;2024-02-28T03:35:17;1.73;;;1.33;;
84133;SDS011;74235;48.688;9.708;2024-02-28T03:37:44;1.63;;;1.20;;
84133;SDS011;74235;48.688;9.708;2024-02-28T03:42:39;1.13;;;0.93;;
84133;SDS011;74235;48.688;9.708;2024-02-28T03:45:07;1.98;;;1.50;;
84133;SDS011;74235;48.688;9.708;2024-02-28T03:47:35;1.65;;;1.13;;
84133;SDS011;74235;48.688;9.708;2024-02-28T03:52:32;1.83;;;1.30;;
84133;SDS011;74235;48.688;9.708;2024-02-28T03:57:27;1.92;;;1.42;;
84133;SDS011;74235;48.688;9.708;2024-02-28T03:59:55;1.48;;;1.15;;
84133;SDS011;74235;48.688;9.708;2024-02-28T04:04:50;0.90;;;0.85;;
84133;SDS011;74235;48.688;9.708;2024-02-28T04:07:19;1.20;;;0.90;;
84133;SDS011;74235;48.688;9.708;2024-02-28T04:09:47;1.55;;;1.42;;
84133;SDS011;74235;48.688;9.708;2024-02-28T04:12:15;1.33;;;1.23;;
84133;SDS011;74235;48.688;9.708;2024-02-28T04:14:42;1.17;;;1.08;;
84133;SDS011;74235;48.688;9.708;2024-02-28T04:19:38;1.30;;;1.10;;
84133;SDS011;74235;48.688;9.708;2024-02-28T04:22:06;2.13;;;1.35;;
84133;SDS011;74235;48.688;9.708;2024-02-28T04:24:35;1.10;;;0.98;;
84133;SDS011;74235;48.688;9.708;2024-02-28T04:27:03;1.35;;;1.25;;
84133;SDS011;74235;48.688;9.708;2024-02-28T04:29:32;1.70;;;1.40;;
84133;SDS011;74235;48.688;9.708;2024-02-28T04:32:00;1.30;;;1.20;;
84133;SDS011;74235;48.688;9.708;2024-02-28T04:36:55;0.98;;;0.88;;
84133;SDS011;74235;48.688;9.708;2024-02-28T04:39:23;1.52;;;1.20;;
84133;SDS011;74235;48.688;9.708;2024-02-28T04:41:52;1.65;;;1.40;;
84133;SDS011;74235;48.688;9.708;2024-02-28T04:44:19;1.33;;;1.20;;
84133;SDS011;74235;48.688;9.708;2024-02-28T04:46:47;1.85;;;1.30;;
84133;SDS011;74235;48.688;9.708;2024-02-28T04:49:15;1.55;;;1.27;;
84133;SDS011;74235;48.688;9.708;2024-02-28T04:51:42;1.55;;;1.20;;
84133;SDS011;74235;48.688;9.708;2024-02-28T04:54:10;2.30;;;1.58;;
84133;SDS011;74235;48.688;9.708;2024-02-28T04:59:08;1.70;;;1.50;;
84133;SDS011;74235;48.688;9.708;2024-02-28T05:01:35;1.80;;;1.40;;
84133;SDS011;74235;48.688;9.708;2024-02-28T05:04:06;1.65;;;1.40;;
84133;SDS011;74235;48.688;9.708;2024-02-28T05:06:34;1.35;;;1.25;;
84133;SDS011;74235;48.688;9.708;2024-02-28T05:09:06;2.25;;;1.52;;
84133;SDS011;74235;48.688;9.708;2024-02-28T05:11:34;0.60;;;0.60;;
84133;SDS011;74235;48.688;9.708;2024-02-28T05:14:02;1.05;;;0.95;;
84133;SDS011;74235;48.688;9.708;2024-02-28T05:16:31;1.17;;;0.90;;
84133;SDS011;74235;48.688;9.708;2024-02-28T05:18:59;1.02;;;0.90;;
84133;SDS011;74235;48.688;9.708;2024-02-28T05:21:27;1.33;;;1.23;;
84133;SDS011;74235;48.688;9.708;2024-02-28T05:23:55;1.00;;;0.90;;
84133;SDS011;74235;48.688;9.708;2024-02-28T05:28:50;0.88;;;0.73;;
84133;SDS011;74235;48.688;9.708;2024-02-28T05:31:21;0.90;;;0.90;;
84133;SDS011;74235;48.688;9.708;2024-02-28T05:33:51;0.70;;;0.70;;
84133;SDS011;74235;48.688;9.708;2024-02-28T05:36:21;1.15;;;0.88;;
84133;SDS011;74235;48.688;9.708;2024-02-28T05:38:49;1.10;;;0.80;;
84133;SDS011;74235;48.688;9.708;2024-02-28T05:41:17;0.90;;;0.73;;
84133;SDS011;74235;48.688;9.708;2024-02-28T05:43:45;1.02;;;0.93;;
84133;SDS011;74235;48.688;9.708;2024-02-28T05:46:13;2.70;;;1.90;;
84133;SDS011;74235;48.688;9.708;2024-02-28T05:48:41;4.13;;;3.00;;
84133;SDS011;74235;48.688;9.708;2024-02-28T05:51:11;4.15;;;3.15;;
84133;SDS011;74235;48.688;9.708;2024-02-28T05:53:39;4.80;;;3.35;;
84133;SDS011;74235;48.688;9.708;2024-02-28T05:56:07;6.03;;;3.55;;
84133;SDS011;74235;48.688;9.708;2024-02-28T05:58:42;13.75;;;3.88;;
84133;SDS011;74235;48.688;9.708;2024-02-28T06:01:12;3.58;;;2.60;;
84133;SDS011;74235;48.688;9.708;2024-02-28T06:03:42;8.13;;;3.50;;
84133;SDS011;74235;48.688;9.708;2024-02-28T06:06:14;5.32;;;2.97;;
84133;SDS011;74235;48.688;9.708;2024-02-28T06:08:42;4.40;;;3.13;;
84133;SDS011;74235;48.688;9.708;2024-02-28T06:11:10;9.32;;;3.28;;
84133;SDS011;74235;48.688;9.708;2024-02-28T06:13:39;5.22;;;2.90;;
84133;SDS011;74235;48.688;9.708;2024-02-28T06:16:08;5.50;;;3.08;;
84133;SDS011;74235;48.688;9.708;2024-02-28T06:18:42;7.90;;;3.00;;
84133;SDS011;74235;48.688;9.708;2024-02-28T06:21:10;5.30;;;3.28;;
84133;SDS011;74235;48.688;9.708;2024-02-28T06:23:39;4.75;;;2.88;;
84133;SDS011;74235;48.688;9.708;2024-02-28T06:26:06;5.25;;;2.60;;
84133;SDS011;74235;48.688;9.708;2024-02-28T06:28:42;4.13;;;2.42;;
84133;SDS011;74235;48.688;9.708;2024-02-28T06:31:11;6.30;;;2.33;;
84133;SDS011;74235;48.688;9.708;2024-02-28T06:33:39;3.92;;;2.50;;
84133;SDS011;74235;48.688;9.708;2024-02-28T06:36:07;4.03;;;2.40;;
84133;SDS011;74235;48.688;9.708;2024-02-28T06:38:35;4.40;;;2.83;;
84133;SDS011;74235;48.688;9.708;2024-02-28T06:41:04;4.50;;;2.95;;
84133;SDS011;74235;48.688;9.708;2024-02-28T06:43:32;3.65;;;2.67;;
84133;SDS011;74235;48.688;9.708;2024-02-28T06:46:02;4.82;;;3.20;;
84133;SDS011;74235;48.688;9.708;2024-02-28T06:48:30;6.80;;;2.80;;
84133;SDS011;74235;48.688;9.708;2024-02-28T06:50:58;4.80;;;2.78;;
84133;SDS011;74235;48.688;9.708;2024-02-28T06:53:25;4.53;;;2.83;;
84133;SDS011;74235;48.688;9.708;2024-02-28T06:55:53;4.90;;;2.65;;
84133;SDS011;74235;48.688;9.708;2024-02-28T06:58:22;5.22;;;4.00;;
84133;SDS011;74235;48.688;9.708;2024-02-28T07:00:52;4.68;;;3.00;;
84133;SDS011;74235;48.688;9.708;2024-02-28T07:03:22;4.95;;;2.60;;
84133;SDS011;74235;48.688;9.708;2024-02-28T07:05:50;3.78;;;2.70;;
84133;SDS011;74235;48.688;9.708;2024-02-28T07:08:17;3.55;;;2.00;;
84133;SDS011;74235;48.688;9.708;2024-02-28T07:13:16;2.88;;;2.13;;
84133;SDS011;74235;48.688;9.708;2024-02-28T07:15:46;4.55;;;2.03;;
84133;SDS011;74235;48.688;9.708;2024-02-28T07:18:14;2.25;;;1.80;;
84133;SDS011;74235;48.688;9.708;2024-02-28T07:20:42;3.80;;;2.10;;
84133;SDS011;74235;48.688;9.708;2024-02-28T07:23:09;2.75;;;1.70;;
84133;SDS011;74235;48.688;9.708;2024-02-28T07:25:37;2.65;;;1.80;;
84133;SDS011;74235;48.688;9.708;2024-02-28T07:28:05;2.17;;;1.80;;
84133;SDS011;74235;48.688;9.708;2024-02-28T07:30:33;2.80;;;1.92;;
84133;SDS011;74235;48.688;9.708;2024-02-28T07:33:02;2.28;;;1.77;;
84133;SDS011;74235;48.688;9.708;2024-02-28T07:35:32;1.88;;;1.50;;
84133;SDS011;74235;48.688;9.708;2024-02-28T07:37:59;2.10;;;1.30;;
84133;SDS011;74235;48.688;9.708;2024-02-28T07:40:27;2.22;;;1.50;;
84133;SDS011;74235;48.688;9.708;2024-02-28T07:42:55;2.35;;;1.60;;
84133;SDS011;74235;48.688;9.708;2024-02-28T07:45:22;2.17;;;1.90;;
84133;SDS011;74235;48.688;9.708;2024-02-28T07:47:50;2.20;;;1.40;;
84133;SDS011;74235;48.688;9.708;2024-02-28T07:50:19;2.08;;;1.50;;
84133;SDS011;74235;48.688;9.708;2024-02-28T07:52:47;1.75;;;1.40;;
84133;SDS011;74235;48.688;9.708;2024-02-28T07:55:15;2.03;;;1.40;;
84133;SDS011;74235;48.688;9.708;2024-02-28T07:57:42;2.92;;;1.55;;
84133;SDS011;74235;48.688;9.708;2024-02-28T08:00:12;2.92;;;1.30;;
84133;SDS011;74235;48.688;9.708;2024-02-28T08:02:40;2.10;;;1.60;;
84133;SDS011;74235;48.688;9.708;2024-02-28T08:05:08;2.25;;;1.63;;
84133;SDS011;74235;48.688;9.708;2024-02-28T08:07:37;1.85;;;1.48;;
84133;SDS011;74235;48.688;9.708;2024-02-28T08:10:05;3.13;;;1.65;;
84133;SDS011;74235;48.688;9.708;2024-02-28T08:12:33;1.50;;;1.30;;
84133;SDS011;74235;48.688;9.708;2024-02-28T08:15:01;4.88;;;1.55;;
84133;SDS011;74235;48.688;9.708;2024-02-28T08:17:29;2.03;;;1.50;;
84133;SDS011;74235;48.688;9.708;2024-02-28T08:19:56;2.15;;;1.55;;
84133;SDS011;74235;48.688;9.708;2024-02-28T08:24:54;1.73;;;1.35;;
84133;SDS011;74235;48.688;9.708;2024-02-28T08:27:21;1.58;;;1.40;;
84133;SDS011;74235;48.688;9.708;2024-02-28T08:29:51;1.80;;;1.23;;
84133;SDS011;74235;48.688;9.708;2024-02-28T08:32:18;1.40;;;1.25;;
84133;SDS011;74235;48.688;9.708;2024-02-28T08:34:46;1.73;;;1.50;;
84133;SDS011;74235;48.688;9.708;2024-02-28T08:37:14;1.40;;;1.23;;
84133;SDS011;74235;48.688;9.708;2024-02-28T08:39:42;1.63;;;1.40;;
84133;SDS011;74235;48.688;9.708;2024-02-28T08:42:11;1.50;;;1.38;;
84133;SDS011;74235;48.688;9.708;2024-02-28T08:44:39;1.35;;;1.25;;
84133;SDS011;74235;48.688;9.708;2024-02-28T08:47:07;3.40;;;1.60;;
84133;SDS011;74235;48.688;9.708;2024-02-28T08:49:39;1.10;;;1.00;;
84133;SDS011;74235;48.688;9.708;2024-02-28T08:52:07;8.77;;;4.85;;
84133;SDS011;74235;48.688;9.708;2024-02-28T08:54:34;5.30;;;3.85;;
84133;SDS011;74235;48.688;9.708;2024-02-28T08:57:02;5.15;;;3.50;;
84133;SDS011;74235;48.688;9.708;2024-02-28T08:59:32;6.13;;;4.13;;
84133;SDS011;74235;48.688;9.708;2024-02-28T09:02:00;8.43;;;5.63;;
84133;SDS011;74235;48.688;9.708;2024-02-28T09:04:28;6.60;;;3.83;;
84133;SDS011;74235;48.688;9.708;2024-02-28T09:06:56;4.40;;;3.10;;
84133;SDS011;74235;48.688;9.708;2024-02-28T09:09:24;4.13;;;2.97;;
84133;SDS011;74235;48.688;9.708;2024-02-28T09:11:52;4.60;;;2.75;;
84133;SDS011;74235;48.688;9.708;2024-02-28T09:14:20;3.85;;;2.60;;
84133;SDS011;74235;48.688;9.708;2024-02-28T09:16:50;4.65;;;2.40;;
84133;SDS011;74235;48.688;9.708;2024-02-28T09:19:18;3.30;;;2.20;;
84133;SDS011;74235;48.688;9.708;2024-02-28T09:21:46;3.17;;;2.22;;
84133;SDS011;74235;48.688;9.708;2024-02-28T09:24:15;2.80;;;2.17;;
84133;SDS011;74235;48.688;9.708;2024-02-28T09:26:43;2.75;;;1.95;;
84133;SDS011;74235;48.688;9.708;2024-02-28T09:29:10;6.45;;;3.70;;
84133;SDS011;74235;48.688;9.708;2024-02-28T09:31:38;7.55;;;3.60;;
84133;SDS011;74235;48.688;9.708;2024-02-28T09:34:07;6.00;;;3.83;;
84133;SDS011;74235;48.688;9.708;2024-02-28T09:36:40;4.90;;;3.30;;
84133;SDS011;74235;48.688;9.708;2024-02-28T09:39:08;4.45;;;2.92;;
84133;SDS011;74235;48.688;9.708;2024-02-28T09:41:36;4.18;;;3.00;;
84133;SDS011;74235;48.688;9.708;2024-02-28T09:44:04;5.35;;;3.10;;
84133;SDS011;74235;48.688;9.708;2024-02-28T09:46:34;3.80;;;2.65;;
84133;SDS011;74235;48.688;9.708;2024-02-28T09:49:02;4.70;;;2.58;;
84133;SDS011;74235;48.688;9.708;2024-02-28T09:51:33;4.18;;;3.20;;
84133;SDS011;74235;48.688;9.708;2024-02-28T09:54:04;3.67;;;2.50;;
84133;SDS011;74235;48.688;9.708;2024-02-28T09:56:33;3.50;;;2.60;;
84133;SDS011;74235;48.688;9.708;2024-02-28T09:59:01;3.88;;;2.88;;
84133;SDS011;74235;48.688;9.708;2024-02-28T10:01:30;4.00;;;2.50;;
84133;SDS011;74235;48.688;9.708;2024-02-28T10:04:02;3.50;;;2.50;;
84133;SDS011;74235;48.688;9.708;2024-02-28T10:06:30;3.90;;;2.60;;
84133;SDS011;74235;48.688;9.708;2024-02-28T10:09:00;3.75;;;2.60;;
84133;SDS011;74235;48.688;9.708;2024-02-28T10:11:27;3.97;;;2.50;;
84133;SDS011;74235;48.688;9.708;2024-02-28T10:13:55;3.15;;;2.38;;
84133;SDS011;74235;48.688;9.708;2024-02-28T10:16:23;4.82;;;2.63;;
84133;SDS011;74235;48.688;9.708;2024-02-28T10:18:52;5.32;;;2.72;;
84133;SDS011;74235;48.688;9.708;2024-02-28T10:21:20;4.57;;;2.20;;
84133;SDS011;74235;48.688;9.708;2024-02-28T10:23:49;2.90;;;2.10;;
84133;SDS011;74235;48.688;9.708;2024-02-28T10:26:17;2.72;;;2.03;;
84133;SDS011;74235;48.688;9.708;2024-02-28T10:28:44;3.38;;;2.35;;
84133;SDS011;74235;48.688;9.708;2024-02-28T10:31:12;3.63;;;2.63;;
84133;SDS011;74235;48.688;9.708;2024-02-28T10:33:41;6.10;;;2.65;;
84133;SDS011;74235;48.688;9.708;2024-02-28T10:36:09;3.35;;;2.47;;
84133;SDS011;74235;48.688;9.708;2024-02-28T10:38:38;4.53;;;2.97;;
84133;SDS011;74235;48.688;9.708;2024-02-28T10:41:07;4.03;;;2.40;;
84133;SDS011;74235;48.688;9.708;2024-02-28T10:43:39;3.83;;;2.40;;
84133;SDS011;74235;48.688;9.708;2024-02-28T10:46:08;2.95;;;2.28;;
84133;SDS011;74235;48.688;9.708;2024-02-28T10:48:56;3.78;;;2.53;;
84133;SDS011;74235;48.688;9.708;2024-02-28T10:51:24;3.63;;;2.33;;
84133;SDS011;74235;48.688;9.708;2024-02-28T10:53:59;4.03;;;2.50;;
84133;SDS011;74235;48.688;9.708;2024-02-28T10:56:35;3.22;;;2.22;;
84133;SDS011;74235;48.688;9.708;2024-02-28T10:59:03;5.80;;;2.45;;
84133;SDS011;74235;48.688;9.708;2024-02-28T11:01:37;3.20;;;2.15;;
84133;SDS011;74235;48.688;9.708;2024-02-28T11:04:09;3.72;;;2.60;;
84133;SDS011;74235;48.688;9.708;2024-02-28T11:06:47;4.85;;;2.95;;
84133;SDS011;74235;48.688;9.708;2024-02-28T11:09:18;4.28;;;2.78;;
84133;SDS011;74235;48.688;9.708;2024-02-28T11:11:48;3.10;;;2.50;;
84133;SDS011;74235;48.688;9.708;2024-02-28T11:14:16;3.97;;;2.83;;
84133;SDS011;74235;48.688;9.708;2024-02-28T11:16:58;6.38;;;3.78;;
84133;SDS011;74235;48.688;9.708;2024-02-28T11:19:28;6.82;;;4.05;;
84133;SDS011;74235;48.688;9.708;2024-02-28T11:22:00;6.13;;;3.80;;
84133;SDS011;74235;48.688;9.708;2024-02-28T11:24:29;7.50;;;4.43;;
84133;SDS011;74235;48.688;9.708;2024-02-28T11:27:02;5.93;;;4.38;;
84133;SDS011;74235;48.688;9.708;2024-02-28T11:29:31;8.40;;;5.07;;
84133;SDS011;74235;48.688;9.708;2024-02-28T11:31:58;8.55;;;5.57;;
84133;SDS011;74235;48.688;9.708;2024-02-28T11:34:26;9.02;;;5.90;;
84133;SDS011;74235;48.688;9.708;2024-02-28T11:36:54;8.95;;;5.38;;
84133;SDS011;74235;48.688;9.708;2024-02-28T11:39:24;8.20;;;5.43;;
84133;SDS011;74235;48.688;9.708;2024-02-28T11:41:54;7.45;;;5.35;;
84133;SDS011;74235;48.688;9.708;2024-02-28T11:44:24;8.48;;;6.03;;
84133;SDS011;74235;48.688;9.708;2024-02-28T11:46:52;7.90;;;5.13;;
84133;SDS011;74235;48.688;9.708;2024-02-28T11:49:19;7.63;;;5.20;;
84133;SDS011;74235;48.688;9.708;2024-02-28T11:51:47;7.60;;;5.07;;
84133;SDS011;74235;48.688;9.708;2024-02-28T11:54:15;7.53;;;5.20;;
84133;SDS011;74235;48.688;9.708;2024-02-28T11:56:43;7.10;;;4.85;;
84133;SDS011;74235;48.688;9.708;2024-02-28T11:59:11;6.10;;;4.40;;
84133;SDS011;74235;48.688;9.708;2024-02-28T12:01:41;6.22;;;4.20;;
84133;SDS011;74235;48.688;9.708;2024-02-28T12:04:11;7.85;;;4.78;;
84133;SDS011;74235;48.688;9.708;2024-02-28T12:06:40;5.10;;;3.65;;
84133;SDS011;74235;48.688;9.708;2024-02-28T12:09:08;9.88;;;3.60;;
84133;SDS011;74235;48.688;9.708;2024-02-28T12:11:38;7.72;;;4.13;;
84133;SDS011;74235;48.688;9.708;2024-02-28T12:14:06;5.50;;;3.25;;
84133;SDS011;74235;48.688;9.708;2024-02-28T12:16:36;4.00;;;3.03;;
84133;SDS011;74235;48.688;9.708;2024-02-28T12:19:09;4.22;;;3.15;;
84133;SDS011;74235;48.688;9.708;2024-02-28T12:21:37;4.80;;;3.10;;
84133;SDS011;74235;48.688;9.708;2024-02-28T12:24:06;4.25;;;3.15;;
84133;SDS011;74235;48.688;9.708;2024-02-28T12:26:36;6.93;;;3.30;;
84133;SDS011;74235;48.688;9.708;2024-02-28T12:29:04;9.75;;;3.67;;
84133;SDS011;74235;48.688;9.708;2024-02-28T12:31:32;7.85;;;3.50;;
84133;SDS011;74235;48.688;9.708;2024-02-28T12:34:00;5.80;;;3.30;;
84133;SDS011;74235;48.688;9.708;2024-02-28T12:36:29;8.63;;;3.50;;
84133;SDS011;74235;48.688;9.708;2024-02-28T12:38:58;7.75;;;3.30;;
84133;SDS011;74235;48.688;9.708;2024-02-28T12:41:27;7.68;;;2.78;;
84133;SDS011;74235;48.688;9.708;2024-02-28T12:43:55;6.28;;;3.05;;
84133;SDS011;74235;48.688;9.708;2024-02-28T12:46:22;5.70;;;3.00;;
84133;SDS011;74235;48.688;9.708;2024-02-28T12:48:50;4.68;;;2.88;;
84133;SDS011;74235;48.688;9.708;2024-02-28T12:51:20;8.25;;;2.85;;
84133;SDS011;74235;48.688;9.708;2024-02-28T12:54:04;5.15;;;2.70;;
84133;SDS011;74235;48.688;9.708;2024-02-28T12:56:32;4.30;;;2.92;;
84133;SDS011;74235;48.688;9.708;2024-02-28T12:59:01;4.68;;;2.42;;
84133;SDS011;74235;48.688;9.708;2024-02-28T13:01:29;4.75;;;3.03;;
84133;SDS011;74235;48.688;9.708;2024-02-28T13:03:57;6.90;;;2.83;;
84133;SDS011;74235;48.688;9.708;2024-02-28T13:06:25;4.20;;;2.55;;
84133;SDS011;74235;48.688;9.708;2024-02-28T13:08:53;5.68;;;2.70;;
84133;SDS011;74235;48.688;9.708;2024-02-28T13:11:23;5.10;;;2.40;;
84133;SDS011;74235;48.688;9.708;2024-02-28T13:13:51;3.28;;;2.50;;
84133;SDS011;74235;48.688;9.708;2024-02-28T13:16:19;3.50;;;2.25;;
84133;SDS011;74235;48.688;9.708;2024-02-28T13:18:49;3.05;;;2.20;;
84133;SDS011;74235;48.688;9.708;2024-02-28T13:21:17;3.90;;;2.55;;
84133;SDS011;74235;48.688;9.708;2024-02-28T13:23:44;2.92;;;2.20;;
84133;SDS011;74235;48.688;9.708;2024-02-28T13:26:12;3.10;;;2.33;;
84133;SDS011;74235;48.688;9.708;2024-02-28T13:28:46;2.85;;;2.05;;
84133;SDS011;74235;48.688;9.708;2024-02-28T13:31:18;3.55;;;2.45;;
84133;SDS011;74235;48.688;9.708;2024-02-28T13:33:46;3.90;;;2.08;;
84133;SDS011;74235;48.688;9.708;2024-02-28T13:36:16;3.17;;;2.20;;
84133;SDS011;74235;48.688;9.708;2024-02-28T13:38:44;2.95;;;2.17;;
84133;SDS011;74235;48.688;9.708;2024-02-28T13:41:12;3.60;;;2.30;;
84133;SDS011;74235;48.688;9.708;2024-02-28T13:43:40;3.72;;;2.67;;
84133;SDS011;74235;48.688;9.708;2024-02-28T13:46:09;8.70;;;5.88;;
84133;SDS011;74235;48.688;9.708;2024-02-28T13:48:37;8.60;;;5.63;;
84133;SDS011;74235;48.688;9.708;2024-02-28T13:51:05;8.00;;;4.97;;
84133;SDS011;74235;48.688;9.708;2024-02-28T13:53:33;5.47;;;4.53;;
84133;SDS011;74235;48.688;9.708;2024-02-28T13:56:01;10.02;;;4.55;;
84133;SDS011;74235;48.688;9.708;2024-02-28T13:58:28;7.70;;;4.63;;
84133;SDS011;74235;48.688;9.708;2024-02-28T14:01:10;6.53;;;4.55;;
84133;SDS011;74235;48.688;9.708;2024-02-28T14:03:38;5.93;;;4.03;;
84133;SDS011;74235;48.688;9.708;2024-02-28T14:06:09;6.78;;;3.45;;
84133;SDS011;74235;48.688;9.708;2024-02-28T14:08:37;5.28;;;3.17;;
84133;SDS011;74235;48.688;9.708;2024-02-28T14:11:09;5.90;;;3.00;;
84133;SDS011;74235;48.688;9.708;2024-02-28T14:13:37;7.05;;;3.03;;
84133;SDS011;74235;48.688;9.708;2024-02-28T14:16:07;3.85;;;2.80;;
84133;SDS011;74235;48.688;9.708;2024-02-28T14:18:36;4.15;;;2.58;;
84133;SDS011;74235;48.688;9.708;2024-02-28T14:21:05;4.25;;;2.70;;
84133;SDS011;74235;48.688;9.708;2024-02-28T14:23:34;3.72;;;2.30;;
84133;SDS011;74235;48.688;9.708;2024-02-28T14:26:02;3.10;;;2.30;;
84133;SDS011;74235;48.688;9.708;2024-02-28T14:28:30;3.20;;;2.50;;
84133;SDS011;74235;48.688;9.708;2024-02-28T14:30:58;6.18;;;2.65;;
84133;SDS011;74235;48.688;9.708;2024-02-28T14:33:26;5.72;;;2.53;;
84133;SDS011;74235;48.688;9.708;2024-02-28T14:35:55;6.28;;;2.20;;
84133;SDS011;74235;48.688;9.708;2024-02-28T14:38:23;3.60;;;2.40;;
84133;SDS011;74235;48.688;9.708;2024-02-28T14:40:50;5.55;;;2.20;;
84133;SDS011;74235;48.688;9.708;2024-02-28T14:43:19;6.60;;;2.45;;
84133;SDS011;74235;48.688;9.708;2024-02-28T14:48:14;8.82;;;3.40;;
84133;SDS011;74235;48.688;9.708;2024-02-28T14:50:42;4.45;;;2.58;;
84133;SDS011;74235;48.688;9.708;2024-02-28T14:53:11;7.13;;;2.17;;
84133;SDS011;74235;48.688;9.708;2024-02-28T14:55:39;6.07;;;2.03;;
84133;SDS011;74235;48.688;9.708;2024-02-28T14:58:07;3.53;;;2.22;;
84133;SDS011;74235;48.688;9.708;2024-02-28T15:00:35;3.70;;;2.25;;
84133;SDS011;74235;48.688;9.708;2024-02-28T15:03:03;6.70;;;2.42;;
84133;SDS011;74235;48.688;9.708;2024-02-28T15:05:32;3.80;;;2.05;;
84133;SDS011;74235;48.688;9.708;2024-02-28T15:07:59;11.80;;;2.47;;
84133;SDS011;74235;48.688;9.708;2024-02-28T15:10:28;3.85;;;2.22;;
84133;SDS011;74235;48.688;9.708;2024-02-28T15:12:56;5.43;;;2.22;;
84133;SDS011;74235;48.688;9.708;2024-02-28T15:15:24;4.22;;;2.25;;
84133;SDS011;74235;48.688;9.708;2024-02-28T15:17:51;6.70;;;2.35;;
84133;SDS011;74235;48.688;9.708;2024-02-28T15:20:19;4.30;;;2.38;;
84133;SDS011;74235;48.688;9.708;2024-02-28T15:22:47;4.38;;;2.20;;
84133;SDS011;74235;48.688;9.708;2024-02-28T15:25:15;4.85;;;2.00;;
84133;SDS011;74235;48.688;9.708;2024-02-28T15:27:44;4.72;;;2.08;;
84133;SDS011;74235;48.688;9.708;2024-02-28T15:30:12;8.20;;;2.47;;
84133;SDS011;74235;48.688;9.708;2024-02-28T15:32:40;3.20;;;1.90;;
84133;SDS011;74235;48.688;9.708;2024-02-28T15:35:09;6.50;;;2.42;;
84133;SDS011;74235;48.688;9.708;2024-02-28T15:37:37;5.32;;;2.15;;
84133;SDS011;74235;48.688;9.708;2024-02-28T15:40:06;3.95;;;2.45;;
84133;SDS011;74235;48.688;9.708;2024-02-28T15:42:34;2.10;;;1.60;;
84133;SDS011;74235;48.688;9.708;2024-02-28T15:45:04;3.28;;;2.20;;
84133;SDS011;74235;48.688;9.708;2024-02-28T15:47:33;2.85;;;1.95;;
84133;SDS011;74235;48.688;9.708;2024-02-28T15:50:02;3.70;;;1.92;;
84133;SDS011;74235;48.688;9.708;2024-02-28T15:52:31;3.30;;;2.17;;
84133;SDS011;74235;48.688;9.708;2024-02-28T15:54:59;3.00;;;2.10;;
84133;SDS011;74235;48.688;9.708;2024-02-28T15:57:27;4.22;;;2.05;;
84133;SDS011;74235;48.688;9.708;2024-02-28T15:59:55;4.70;;;2.28;;
84133;SDS011;74235;48.688;9.708;2024-02-28T16:02:24;8.48;;;2.50;;
84133;SDS011;74235;48.688;9.708;2024-02-28T16:04:52;5.60;;;2.25;;
84133;SDS011;74235;48.688;9.708;2024-02-28T16:07:20;5.35;;;2.42;;
84133;SDS011;74235;48.688;9.708;2024-02-28T16:09:48;4.85;;;2.53;;